createdAt,value
2023-01-27T00:03:13.906Z,1.39
2023-01-27T00:08:18.627Z,1.33
2023-01-27T00:13:28.134Z,1.21
2023-01-27T00:18:31.660Z,1.22
2023-01-27T00:23:54.050Z,1.16
2023-01-27T00:28:57.529Z,1.14
2023-01-27T00:34:09.718Z,1.12
2023-01-27T00:39:13.775Z,1.13
2023-01-27T00:44:17.491Z,1.19
2023-01-27T00:49:21.007Z,1.22
2023-01-27T00:54:24.522Z,1.13
2023-01-27T00:59:28.140Z,1.01
2023-01-27T01:04:31.655Z,0.94
2023-01-27T01:09:35.284Z,0.94
2023-01-27T01:14:38.890Z,0.90
2023-01-27T01:19:42.511Z,0.83
2023-01-27T01:24:46.024Z,0.75
2023-01-27T01:29:49.642Z,0.73
2023-01-27T01:34:53.157Z,0.81
2023-01-27T01:39:56.775Z,0.89
2023-01-27T01:45:31.628Z,0.91
2023-01-27T01:50:36.783Z,0.89
2023-01-27T01:55:42.021Z,0.83
2023-01-27T02:00:45.755Z,0.79
2023-01-27T02:05:49.785Z,0.70
2023-01-27T02:10:54.834Z,0.70
2023-01-27T02:15:58.655Z,0.75
2023-01-27T02:21:03.038Z,0.72
2023-01-27T02:26:10.811Z,0.68
2023-01-27T02:31:14.421Z,0.67
2023-01-27T02:36:19.374Z,0.68
2023-01-27T02:41:35.094Z,0.73
2023-01-27T02:46:38.591Z,0.70
2023-01-27T02:51:42.423Z,0.69
2023-01-27T02:56:45.932Z,0.66
2023-01-27T03:01:49.483Z,0.61
2023-01-27T03:06:53.164Z,0.59
2023-01-27T03:12:15.317Z,0.63
2023-01-27T03:17:37.572Z,0.70
2023-01-27T03:22:41.294Z,0.75
2023-01-27T03:27:45.215Z,0.74
2023-01-27T03:32:48.735Z,0.76
2023-01-27T03:38:10.781Z,0.80
2023-01-27T03:43:33.760Z,0.81
2023-01-27T03:48:37.573Z,0.81
2023-01-27T03:53:41.003Z,0.81
2023-01-27T03:58:44.818Z,0.80
2023-01-27T04:04:07.895Z,0.80
2023-01-27T04:09:13.516Z,0.83
2023-01-27T04:14:17.382Z,0.87
2023-01-27T04:19:21.402Z,0.84
2023-01-27T04:24:25.440Z,0.78
2023-01-27T04:29:32.428Z,0.79
2023-01-27T04:34:36.939Z,0.82
2023-01-27T04:39:42.125Z,0.86
2023-01-27T04:44:45.537Z,0.83
2023-01-27T04:49:49.152Z,0.84
2023-01-27T04:54:52.879Z,0.89
2023-01-27T04:59:56.282Z,0.94
2023-01-27T05:04:59.795Z,0.93
2023-01-27T05:10:03.236Z,0.91
2023-01-27T05:15:07.651Z,0.86
2023-01-27T05:20:11.366Z,0.89
2023-01-27T05:25:15.305Z,0.92
2023-01-27T05:30:19.734Z,0.93
2023-01-27T05:35:23.245Z,0.98
2023-01-27T05:40:27.417Z,1.00
2023-01-27T05:45:30.995Z,1.01
2023-01-27T05:50:34.507Z,1.06
2023-01-27T05:55:38.024Z,1.07
2023-01-27T06:00:41.435Z,1.05
2023-01-27T06:05:51.814Z,1.07
2023-01-27T06:10:55.227Z,1.06
2023-01-27T06:15:58.844Z,1.13
2023-01-27T06:21:04.877Z,1.04
2023-01-27T06:26:14.615Z,0.92
2023-01-27T06:31:22.667Z,0.88
2023-01-27T06:36:26.420Z,0.89
2023-01-27T06:41:29.942Z,0.90
2023-01-27T06:46:34.548Z,0.92
2023-01-27T06:51:38.098Z,0.89
2023-01-27T06:56:41.613Z,0.88
2023-01-27T07:01:45.170Z,0.99
2023-01-27T07:06:48.844Z,0.99
2023-01-27T07:11:53.591Z,0.95
2023-01-27T07:16:57.309Z,0.99
2023-01-27T07:22:01.437Z,1.07
2023-01-27T07:27:04.852Z,1.07
2023-01-27T07:32:08.371Z,1.11
2023-01-27T07:37:11.987Z,1.15
2023-01-27T07:42:15.608Z,1.18
2023-01-27T07:47:19.124Z,1.21
2023-01-27T07:52:22.739Z,1.29
2023-01-27T07:57:26.462Z,1.32
2023-01-27T08:02:31.919Z,1.29
2023-01-27T08:07:35.330Z,1.40
2023-01-27T08:12:38.950Z,1.48
2023-01-27T08:17:42.773Z,1.48
2023-01-27T08:22:46.597Z,1.51
2023-01-27T08:27:55.406Z,1.49
2023-01-27T08:32:58.953Z,1.44
2023-01-27T08:38:02.566Z,1.36
2023-01-27T08:43:06.087Z,1.32
2023-01-27T08:48:12.142Z,1.37
2023-01-27T08:53:16.289Z,1.50
2023-01-27T08:58:19.910Z,1.61
2023-01-27T09:03:23.526Z,1.65
2023-01-27T09:08:27.243Z,1.65
2023-01-27T09:13:30.864Z,1.76
2023-01-27T09:18:35.467Z,1.83
2023-01-27T09:23:39.016Z,1.93
2023-01-27T09:28:42.536Z,2.06
2023-01-27T09:33:46.050Z,2.16
2023-01-27T09:39:00.812Z,2.15
2023-01-27T09:44:12.944Z,2.12
2023-01-27T09:49:25.591Z,2.01
2023-01-27T09:54:32.064Z,1.88
2023-01-27T10:00:17.251Z,1.77
2023-01-27T10:05:26.603Z,1.78
2023-01-27T10:11:07.397Z,1.72
2023-01-27T10:16:32.654Z,1.72
2023-01-27T10:21:45.259Z,1.82
2023-01-27T10:26:59.823Z,1.88
2023-01-27T10:32:12.346Z,2.00
2023-01-27T10:37:24.586Z,2.24
2023-01-27T10:42:59.532Z,2.36
2023-01-27T10:48:16.662Z,2.49
2023-01-27T10:53:26.315Z,2.44
2023-01-27T10:58:42.634Z,2.22
2023-01-27T11:03:59.229Z,2.11
2023-01-27T11:09:12.290Z,2.14
2023-01-27T11:14:30.456Z,2.22
2023-01-27T11:19:52.399Z,2.40
2023-01-27T11:25:17.797Z,2.61
2023-01-27T11:31:00.290Z,2.86
2023-01-27T11:36:04.085Z,2.85
2023-01-27T11:41:08.009Z,2.89
2023-01-27T11:46:18.287Z,2.98
2023-01-27T11:51:32.755Z,2.95
2023-01-27T11:56:38.214Z,3.03
2023-01-27T12:02:03.027Z,3.05
2023-01-27T12:07:11.049Z,3.12
2023-01-27T12:12:14.460Z,2.93
2023-01-27T12:17:43.681Z,2.65
2023-01-27T12:22:50.146Z,2.40
2023-01-27T12:27:57.579Z,2.34
2023-01-27T12:33:12.266Z,2.50
2023-01-27T12:38:15.452Z,2.57
2023-01-27T12:43:20.525Z,2.54
2023-01-27T12:48:24.035Z,2.47
2023-01-27T12:53:28.294Z,2.35
2023-01-27T12:58:43.548Z,2.21
2023-01-27T13:03:52.422Z,2.15
2023-01-27T13:08:55.899Z,2.02
2023-01-27T13:13:59.729Z,1.82
2023-01-27T13:19:03.342Z,1.68
2023-01-27T13:24:19.800Z,1.56
2023-01-27T13:29:29.112Z,1.43
2023-01-27T13:34:46.349Z,1.34
2023-01-27T13:40:11.860Z,1.30
2023-01-27T13:46:09.378Z,1.25
2023-01-27T13:51:19.538Z,1.18
2023-01-27T13:56:37.891Z,1.11
2023-01-27T14:02:27.183Z,1.08
2023-01-27T14:07:45.139Z,0.96
2023-01-27T14:12:57.561Z,0.89
2023-01-27T14:18:14.192Z,0.79
2023-01-27T14:23:45.962Z,0.70
2023-01-27T14:29:07.807Z,0.63
2023-01-27T14:34:36.621Z,0.64
2023-01-27T14:40:09.415Z,0.65
2023-01-27T14:45:45.313Z,0.66
2023-01-27T14:51:19.664Z,0.63
2023-01-27T14:57:02.873Z,0.60
2023-01-27T15:02:07.440Z,0.51
2023-01-27T15:07:30.898Z,0.48
2023-01-27T15:13:12.099Z,0.46
2023-01-27T15:18:24.522Z,0.47
2023-01-27T15:23:52.260Z,0.47
2023-01-27T15:28:57.979Z,0.46
2023-01-27T15:34:04.460Z,0.44
2023-01-27T15:39:11.047Z,0.32
2023-01-27T15:44:34.065Z,0.28
2023-01-27T15:49:43.602Z,0.23
2023-01-27T15:54:50.961Z,0.16
2023-01-27T15:59:59.509Z,0.18
2023-01-27T16:05:21.257Z,0.20
2023-01-27T16:10:28.252Z,0.23
2023-01-27T16:15:34.126Z,0.24
2023-01-27T16:21:02.829Z,0.26
2023-01-27T16:26:31.339Z,0.29
2023-01-27T16:31:37.165Z,0.31
2023-01-27T16:36:40.922Z,0.32
2023-01-27T16:41:57.663Z,0.36
2023-01-27T16:47:16.439Z,0.30
2023-01-27T16:52:40.821Z,0.20
2023-01-27T16:57:46.184Z,0.18
2023-01-27T17:02:52.854Z,0.15
2023-01-27T17:08:39.808Z,0.13
2023-01-27T17:13:53.241Z,0.08
2023-01-27T17:19:26.060Z,-0.01
2023-01-27T17:24:29.727Z,-0.12
2023-01-27T17:29:40.242Z,-0.20
2023-01-27T17:34:43.983Z,-0.21
2023-01-27T17:39:55.541Z,-0.21
2023-01-27T17:45:23.182Z,-0.20
2023-01-27T17:50:33.512Z,-0.25
2023-01-27T17:55:37.571Z,-0.26
2023-01-27T18:00:44.265Z,-0.22
2023-01-27T18:05:51.261Z,-0.22
2023-01-27T18:11:19.256Z,-0.22
2023-01-27T18:16:24.539Z,-0.18
2023-01-27T18:21:28.223Z,-0.15
2023-01-27T18:26:39.734Z,-0.13
2023-01-27T18:31:58.240Z,-0.15
2023-01-27T18:37:23.260Z,-0.26
2023-01-27T18:42:30.110Z,-0.29
2023-01-27T18:47:35.860Z,-0.36
2023-01-27T18:52:40.717Z,-0.40
2023-01-27T18:57:45.258Z,-0.42
2023-01-27T19:02:51.762Z,-0.44
2023-01-27T19:07:55.566Z,-0.47
2023-01-27T19:13:01.615Z,-0.47
2023-01-27T19:18:15.401Z,-0.53
2023-01-27T19:23:20.608Z,-0.53
2023-01-27T19:28:56.052Z,-0.54
2023-01-27T19:34:01.323Z,-0.59
2023-01-27T19:39:07.736Z,-0.55
2023-01-27T19:44:11.684Z,-0.55
2023-01-27T19:49:18.633Z,-0.57
2023-01-27T19:54:24.108Z,-0.59
2023-01-27T19:59:28.822Z,-0.60
2023-01-27T20:04:34.993Z,-0.61
2023-01-27T20:09:39.193Z,-0.51
2023-01-27T20:14:42.815Z,-0.58
2023-01-27T20:19:48.066Z,-0.63
2023-01-27T20:24:51.683Z,-0.65
2023-01-27T20:29:55.099Z,-0.65
2023-01-27T20:35:01.693Z,-0.66
2023-01-27T20:40:06.882Z,-0.72
2023-01-27T20:45:10.803Z,-0.79
2023-01-27T20:50:14.281Z,-0.77
2023-01-27T20:55:22.656Z,-0.70
2023-01-27T21:00:27.285Z,-0.65
2023-01-27T21:05:31.685Z,-0.60
2023-01-27T21:10:35.450Z,-0.53
2023-01-27T21:15:39.127Z,-0.51
2023-01-27T21:20:48.867Z,-0.51
2023-01-27T21:25:52.404Z,-0.53
2023-01-27T21:30:55.946Z,-0.58
2023-01-27T21:35:59.336Z,-0.65
2023-01-27T21:41:10.743Z,-0.65
2023-01-27T21:46:14.374Z,-0.64
2023-01-27T21:51:17.865Z,-0.67
2023-01-27T21:56:21.588Z,-0.70
2023-01-27T22:01:27.157Z,-0.68
2023-01-27T22:06:30.978Z,-0.64
2023-01-27T22:11:34.388Z,-0.56
2023-01-27T22:16:37.944Z,-0.52
2023-01-27T22:21:41.623Z,-0.50
2023-01-27T22:26:45.135Z,-0.50
2023-01-27T22:31:48.860Z,-0.55
2023-01-27T22:36:52.578Z,-0.55
2023-01-27T22:41:56.295Z,-0.57
2023-01-27T22:46:59.812Z,-0.54
2023-01-27T22:52:03.537Z,-0.53
2023-01-27T22:57:07.047Z,-0.54
2023-01-27T23:02:10.841Z,-0.54
2023-01-27T23:07:14.695Z,-0.57
2023-01-27T23:12:18.619Z,-0.52
2023-01-27T23:17:21.929Z,-0.47
2023-01-27T23:22:25.575Z,-0.45
2023-01-27T23:27:29.271Z,-0.42
2023-01-27T23:32:32.892Z,-0.31
2023-01-27T23:37:36.613Z,-0.22
2023-01-27T23:42:40.429Z,-0.21
2023-01-27T23:47:43.845Z,-0.19
2023-01-27T23:52:47.774Z,-0.15
2023-01-27T23:57:51.387Z,-0.11
